createdAt,value
2018-08-12T00:02:55.539Z,22.40
2018-08-12T00:07:58.811Z,21.90
2018-08-12T00:13:02.052Z,21.80
2018-08-12T00:18:05.502Z,21.90
2018-08-12T00:23:08.723Z,21.90
2018-08-12T00:28:12.072Z,21.80
2018-08-12T00:33:15.316Z,21.80
2018-08-12T00:38:18.571Z,21.80
2018-08-12T00:43:21.829Z,21.80
2018-08-12T00:48:25.064Z,22.00
2018-08-12T00:53:28.332Z,21.60
2018-08-12T00:58:31.591Z,21.70
2018-08-12T01:03:34.808Z,21.80
2018-08-12T01:08:38.067Z,21.70
2018-08-12T01:13:41.338Z,21.70
2018-08-12T01:18:44.583Z,21.60
2018-08-12T01:23:47.827Z,21.40
2018-08-12T01:28:51.054Z,21.80
2018-08-12T01:33:54.267Z,21.70
2018-08-12T01:38:57.447Z,21.60
2018-08-12T01:44:00.636Z,21.60
2018-08-12T01:49:03.824Z,21.50
2018-08-12T01:54:07.028Z,21.50
2018-08-12T01:59:10.260Z,21.50
2018-08-12T02:04:13.460Z,21.50
2018-08-12T02:09:16.667Z,21.50
2018-08-12T02:14:19.893Z,21.70
2018-08-12T02:19:23.304Z,21.30
2018-08-12T02:24:26.505Z,21.50
2018-08-12T02:29:29.927Z,21.50
2018-08-12T02:34:33.475Z,21.30
2018-08-12T02:39:36.755Z,21.40
2018-08-12T02:44:39.947Z,21.30
2018-08-12T02:49:43.127Z,21.10
2018-08-12T02:54:46.311Z,21.30
2018-08-12T02:59:49.525Z,21.00
2018-08-12T03:04:52.692Z,21.00
2018-08-12T03:09:55.879Z,21.10
2018-08-12T03:14:59.059Z,21.10
2018-08-12T03:20:02.341Z,20.90
2018-08-12T03:25:06.756Z,21.00
2018-08-12T03:30:11.168Z,21.00
2018-08-12T03:35:14.283Z,21.00
2018-08-12T03:40:17.471Z,21.00
2018-08-12T03:45:20.658Z,21.10
2018-08-12T03:50:23.847Z,21.20
2018-08-12T03:55:27.076Z,20.90
2018-08-12T04:00:30.286Z,20.80
2018-08-12T04:05:33.503Z,20.90
2018-08-12T04:10:36.711Z,20.80
2018-08-12T04:15:39.991Z,20.80
2018-08-12T04:20:43.203Z,20.80
2018-08-12T04:25:46.410Z,20.80
2018-08-12T04:30:49.631Z,20.70
2018-08-12T04:35:52.859Z,20.70
2018-08-12T04:40:56.062Z,20.70
2018-08-12T04:45:59.327Z,20.80
2018-08-12T04:51:03.018Z,20.60
2018-08-12T04:56:06.318Z,20.60
2018-08-12T05:01:09.502Z,20.80
2018-08-12T05:06:12.719Z,20.60
2018-08-12T05:11:15.904Z,20.70
2018-08-12T05:16:19.315Z,20.50
2018-08-12T05:21:22.491Z,20.50
2018-08-12T05:26:25.679Z,20.50
2018-08-12T05:31:28.859Z,20.50
2018-08-12T05:36:32.091Z,20.80
2018-08-12T05:41:35.297Z,20.50
2018-08-12T05:46:38.459Z,20.80
2018-08-12T05:51:41.644Z,20.40
2018-08-12T05:56:44.860Z,20.50
2018-08-12T06:01:48.036Z,20.60
2018-08-12T06:06:51.210Z,20.60
2018-08-12T06:11:54.404Z,20.60
2018-08-12T06:16:57.586Z,20.70
2018-08-12T06:22:00.771Z,20.70
2018-08-12T06:27:03.959Z,20.70
2018-08-12T06:32:07.980Z,20.90
2018-08-12T06:37:11.415Z,20.90
2018-08-12T06:42:14.604Z,20.90
2018-08-12T06:47:17.851Z,20.90
2018-08-12T06:52:21.057Z,21.10
2018-08-12T06:57:24.295Z,21.10
2018-08-12T07:02:27.616Z,21.00
2018-08-12T07:07:30.827Z,21.20
2018-08-12T07:12:34.111Z,21.30
2018-08-12T07:17:37.343Z,21.20
2018-08-12T07:22:40.688Z,21.40
2018-08-12T07:27:44.191Z,21.40
2018-08-12T07:32:47.471Z,21.60
2018-08-12T07:37:50.631Z,21.50
2018-08-12T07:42:53.851Z,21.80
2018-08-12T07:47:57.056Z,21.30
2018-08-12T07:53:00.271Z,21.70
2018-08-12T07:58:03.496Z,21.70
2018-08-12T08:03:06.859Z,21.80
2018-08-12T08:08:10.055Z,21.70
2018-08-12T08:13:13.384Z,22.60
2018-08-12T08:18:16.567Z,22.50
2018-08-12T08:23:19.756Z,22.50
2018-08-12T08:28:22.999Z,22.70
2018-08-12T08:33:26.187Z,22.70
2018-08-12T08:38:29.392Z,22.80
2018-08-12T08:43:32.658Z,22.60
2018-08-12T08:48:36.108Z,22.90
2018-08-12T08:53:39.292Z,23.40
2018-08-12T08:58:42.542Z,23.40
2018-08-12T09:03:45.743Z,23.40
2018-08-12T09:08:49.376Z,23.40
2018-08-12T09:13:52.359Z,23.40
2018-08-12T09:18:55.608Z,23.50
2018-08-12T09:23:58.909Z,23.50
2018-08-12T09:29:02.239Z,23.60
2018-08-12T09:34:05.471Z,23.80
2018-08-12T09:39:10.394Z,23.80
2018-08-12T09:44:13.604Z,23.90
2018-08-12T09:49:16.814Z,24.10
2018-08-12T09:54:20.048Z,24.10
2018-08-12T09:59:23.280Z,24.20
2018-08-12T10:04:26.493Z,24.40
2018-08-12T10:09:30.357Z,24.50
2018-08-12T10:14:33.610Z,24.60
2018-08-12T10:19:36.827Z,24.70
2018-08-12T10:24:40.044Z,24.90
2018-08-12T10:29:43.267Z,24.90
2018-08-12T10:34:46.843Z,25.00
2018-08-12T10:39:50.055Z,25.10
2018-08-12T10:44:53.271Z,25.20
2018-08-12T10:49:56.475Z,25.30
2018-08-12T10:55:00.072Z,25.30
2018-08-12T11:00:03.323Z,25.50
2018-08-12T11:05:06.654Z,25.60
2018-08-12T11:10:10.555Z,25.80
2018-08-12T11:15:13.751Z,25.90
2018-08-12T11:20:16.974Z,25.90
2018-08-12T11:25:20.124Z,26.00
2018-08-12T11:30:23.287Z,26.10
2018-08-12T11:35:26.479Z,26.20
2018-08-12T11:40:29.681Z,26.40
2018-08-12T11:45:32.855Z,26.50
2018-08-12T11:50:36.047Z,26.60
2018-08-12T11:55:39.271Z,26.50
2018-08-12T12:00:42.455Z,26.60
2018-08-12T12:05:45.640Z,26.70
2018-08-12T12:10:48.828Z,26.80
2018-08-12T12:15:52.032Z,26.80
2018-08-12T12:20:55.220Z,26.90
2018-08-12T12:25:58.435Z,26.90
2018-08-12T12:31:01.643Z,27.00
2018-08-12T12:36:04.837Z,27.10
2018-08-12T12:41:08.060Z,27.20
2018-08-12T12:46:11.243Z,27.20
2018-08-12T12:51:14.440Z,27.20
2018-08-12T12:56:17.687Z,27.20
2018-08-12T13:01:20.895Z,27.20
2018-08-12T13:06:24.103Z,27.30
2018-08-12T13:11:27.346Z,27.30
2018-08-12T13:16:30.551Z,27.40
2018-08-12T13:21:33.772Z,27.30
2018-08-12T13:26:36.992Z,27.40
2018-08-12T13:31:40.227Z,27.40
2018-08-12T13:36:44.904Z,27.40
2018-08-12T13:41:49.696Z,27.50
2018-08-12T13:46:52.930Z,27.40
2018-08-12T13:51:57.388Z,27.50
2018-08-12T13:57:01.907Z,27.50
2018-08-12T14:02:06.104Z,27.50
2018-08-12T14:07:09.374Z,27.50
2018-08-12T14:12:12.481Z,27.50
2018-08-12T14:17:15.671Z,27.50
2018-08-12T14:22:18.855Z,27.50
2018-08-12T14:27:22.039Z,27.50
2018-08-12T14:32:25.271Z,27.50
2018-08-12T14:37:28.507Z,27.60
2018-08-12T14:42:31.672Z,27.60
2018-08-12T14:47:34.876Z,27.60
2018-08-12T14:52:38.056Z,27.60
2018-08-12T14:57:41.850Z,27.70
2018-08-12T15:02:46.061Z,27.70
2018-08-12T15:07:49.324Z,27.60
2018-08-12T15:12:52.523Z,27.70
2018-08-12T15:17:55.736Z,27.70
2018-08-12T15:22:59.003Z,27.70
2018-08-12T15:28:02.139Z,27.70
2018-08-12T15:33:05.367Z,27.70
2018-08-12T15:38:08.750Z,27.70
2018-08-12T15:43:11.955Z,27.70
2018-08-12T15:48:15.159Z,27.70
2018-08-12T15:53:18.375Z,27.70
2018-08-12T15:58:22.133Z,27.70
2018-08-12T16:03:25.379Z,27.80
2018-08-12T16:08:28.518Z,27.80
2018-08-12T16:13:31.714Z,27.80
2018-08-12T16:18:34.900Z,27.70
2018-08-12T16:23:38.163Z,27.70
2018-08-12T16:28:41.373Z,27.70
2018-08-12T16:33:44.594Z,27.70
2018-08-12T16:38:47.811Z,27.70
2018-08-12T16:43:51.024Z,27.60
2018-08-12T16:48:54.243Z,27.70
2018-08-12T16:53:57.459Z,27.60
2018-08-12T16:59:00.706Z,27.60
2018-08-12T17:04:04.001Z,27.50
2018-08-12T17:09:09.480Z,27.50
2018-08-12T17:14:12.706Z,27.60
2018-08-12T17:19:15.932Z,27.50
2018-08-12T17:24:19.145Z,27.50
2018-08-12T17:29:22.356Z,27.50
2018-08-12T17:34:25.564Z,27.50
2018-08-12T17:39:28.779Z,27.50
2018-08-12T17:44:31.985Z,27.50
2018-08-12T17:49:35.280Z,27.50
2018-08-12T17:54:38.492Z,27.40
2018-08-12T17:59:41.732Z,27.40
2018-08-12T18:04:44.944Z,27.50
2018-08-12T18:09:48.127Z,27.40
2018-08-12T18:14:51.355Z,27.40
2018-08-12T18:19:54.531Z,27.30
2018-08-12T18:24:57.726Z,27.30
2018-08-12T18:30:00.928Z,27.30
2018-08-12T18:35:04.904Z,27.20
2018-08-12T18:40:09.507Z,27.20
2018-08-12T18:45:12.691Z,27.10
2018-08-12T18:50:15.900Z,27.10
2018-08-12T18:55:19.148Z,27.00
2018-08-12T19:00:22.355Z,27.00
2018-08-12T19:05:25.571Z,26.90
2018-08-12T19:10:28.791Z,26.80
2018-08-12T19:15:32.010Z,26.70
2018-08-12T19:20:35.219Z,26.60
2018-08-12T19:25:38.439Z,26.60
2018-08-12T19:30:41.637Z,26.60
2018-08-12T19:35:44.839Z,26.50
2018-08-12T19:40:48.047Z,26.40
2018-08-12T19:45:51.328Z,26.30
2018-08-12T19:50:54.545Z,26.20
2018-08-12T19:55:57.807Z,26.20
2018-08-12T20:01:01.178Z,26.10
2018-08-12T20:06:04.390Z,26.10
2018-08-12T20:11:07.616Z,26.00
2018-08-12T20:16:11.097Z,25.90
2018-08-12T20:21:14.623Z,25.90
2018-08-12T20:26:17.843Z,25.80
2018-08-12T20:31:21.084Z,25.70
2018-08-12T20:36:24.539Z,25.70
2018-08-12T20:41:27.755Z,25.60
2018-08-12T20:46:30.967Z,25.60
2018-08-12T20:51:34.175Z,25.50
2018-08-12T20:56:37.388Z,25.40
2018-08-12T21:01:40.760Z,25.40
2018-08-12T21:06:43.946Z,25.40
2018-08-12T21:11:47.147Z,25.30
2018-08-12T21:16:50.328Z,25.20
2018-08-12T21:21:53.523Z,25.10
2018-08-12T21:26:56.715Z,25.10
2018-08-12T21:31:59.899Z,25.00
2018-08-12T21:37:03.098Z,25.00
2018-08-12T21:42:06.338Z,24.90
2018-08-12T21:47:09.534Z,24.80
2018-08-12T21:52:12.720Z,24.80
2018-08-12T21:57:15.926Z,24.80
2018-08-12T22:02:19.123Z,24.70
2018-08-12T22:07:22.604Z,24.70
2018-08-12T22:12:25.823Z,24.60
2018-08-12T22:17:29.056Z,24.60
2018-08-12T22:22:32.247Z,24.60
2018-08-12T22:27:35.426Z,24.60
2018-08-12T22:32:38.615Z,24.50
2018-08-12T22:37:42.039Z,24.50
2018-08-12T22:42:45.236Z,24.40
2018-08-12T22:47:48.419Z,24.40
2018-08-12T22:52:51.616Z,24.40
2018-08-12T22:57:54.847Z,24.40
2018-08-12T23:02:58.038Z,24.30
2018-08-12T23:08:07.183Z,24.30
2018-08-12T23:13:10.365Z,24.20
2018-08-12T23:18:13.555Z,24.20
2018-08-12T23:23:16.751Z,24.20
2018-08-12T23:28:19.950Z,24.10
2018-08-12T23:33:23.147Z,24.10
2018-08-12T23:38:26.344Z,24.00
2018-08-12T23:43:29.551Z,24.00
2018-08-12T23:48:32.783Z,24.00
2018-08-12T23:53:35.984Z,24.00
2018-08-12T23:58:39.188Z,24.00
